Time;durP1;ratioP1;P1;durP2;ratioP2;P2;SDS_P1;SDS_P2;PMS_P1;PMS_P2;Temp;Humidity;BMP_temperature;BMP_pressure;BME280_temperature;BME280_humidity;BME280_pressure;Samples;Min_cycle;Max_cycle;Signal;HPM_P1;HPM_P2
2020/12/29 00:00:54;;;;;;;2.17;1.90;;;7.10;62.60;;;;;;4898291;29;20452;-76
2020/12/29 00:03:21;;;;;;;1.87;1.77;;;7.10;62.60;;;;;;4899063;29;20460;-76
2020/12/29 00:05:48;;;;;;;1.70;1.60;;;7.10;62.50;;;;;;4900179;29;20460;-77
2020/12/29 00:08:15;;;;;;;1.33;1.20;;;7.10;62.80;;;;;;4899794;29;20492;-77
2020/12/29 00:10:41;;;;;;;3.10;1.70;;;7.10;63.10;;;;;;4899900;29;20467;-76
2020/12/29 00:13:09;;;;;;;1.70;1.50;;;7.10;63.50;;;;;;4900182;29;20534;-77
2020/12/29 00:15:40;;;;;;;1.03;0.93;;;7.00;63.90;;;;;;4899563;29;20595;-77
2020/12/29 00:18:08;;;;;;;1.50;1.40;;;7.00;64.50;;;;;;4899440;29;20985;-77
2020/12/29 00:20:42;;;;;;;1.77;1.50;;;7.00;64.90;;;;;;4899882;29;20522;-76
2020/12/29 00:23:08;;;;;;;1.77;1.40;;;7.00;65.00;;;;;;4899701;29;20467;-76
2020/12/29 00:25:35;;;;;;;1.43;1.30;;;7.00;65.50;;;;;;4897993;29;20514;-76
2020/12/29 00:28:01;;;;;;;1.00;0.90;;;6.90;65.70;;;;;;4898949;29;20499;-77
2020/12/29 00:30:28;;;;;;;0.90;0.90;;;6.90;66.10;;;;;;4882745;29;20463;-77
2020/12/29 00:32:55;;;;;;;1.30;1.00;;;6.90;66.40;;;;;;4899479;29;20528;-77
2020/12/29 00:35:22;;;;;;;1.33;1.00;;;6.80;66.70;;;;;;4899574;29;20459;-77
2020/12/29 00:37:49;;;;;;;1.33;1.23;;;6.80;66.80;;;;;;4899666;29;20497;-78
2020/12/29 00:40:15;;;;;;;1.10;1.00;;;6.80;67.00;;;;;;4899195;29;20812;-76
2020/12/29 00:42:42;;;;;;;0.97;0.90;;;6.80;67.10;;;;;;4899052;29;20465;-76
2020/12/29 00:45:09;;;;;;;1.10;1.00;;;6.80;66.90;;;;;;4898966;29;21007;-76
2020/12/29 00:47:36;;;;;;;1.63;1.53;;;6.90;67.20;;;;;;4899193;29;20591;-76
2020/12/29 00:50:02;;;;;;;1.03;0.93;;;6.90;67.20;;;;;;4898955;29;20457;-76
2020/12/29 00:52:30;;;;;;;1.00;1.00;;;6.90;67.10;;;;;;4897266;29;21022;-76
2020/12/29 00:54:56;;;;;;;0.97;0.90;;;7.00;67.00;;;;;;4899010;29;20462;-77
2020/12/29 00:57:23;;;;;;;1.07;1.00;;;7.00;67.10;;;;;;4898732;29;20463;-76
2020/12/29 00:59:49;;;;;;;1.50;0.87;;;7.00;66.90;;;;;;4899241;29;20452;-77
2020/12/29 01:02:16;;;;;;;1.27;0.80;;;7.00;67.00;;;;;;4898169;29;20447;-77
2020/12/29 01:04:42;;;;;;;0.77;0.77;;;7.10;67.10;;;;;;4898967;29;20459;-77
2020/12/29 01:07:09;;;;;;;0.80;0.80;;;7.20;67.40;;;;;;4898763;29;20496;-76
2020/12/29 01:09:37;;;;;;;1.23;1.00;;;7.20;67.40;;;;;;4898815;29;20468;-77
2020/12/29 01:12:03;;;;;;;0.80;0.80;;;7.20;67.60;;;;;;4898449;29;20657;-76
2020/12/29 01:14:30;;;;;;;0.60;0.60;;;7.20;68.00;;;;;;4898528;29;20500;-77
2020/12/29 01:16:57;;;;;;;0.80;0.73;;;7.20;69.00;;;;;;4897510;29;20464;-77
2020/12/29 01:19:24;;;;;;;0.80;0.50;;;7.20;69.50;;;;;;4897880;29;20463;-76
2020/12/29 01:21:51;;;;;;;0.60;0.60;;;7.20;69.90;;;;;;4898382;29;20528;-77
2020/12/29 01:24:18;;;;;;;0.80;0.80;;;7.20;70.20;;;;;;4898049;29;20546;-77
2020/12/29 01:26:45;;;;;;;1.40;0.80;;;7.20;70.50;;;;;;4897879;29;20536;-77
2020/12/29 01:29:12;;;;;;;0.70;0.70;;;7.20;70.60;;;;;;4898360;29;20829;-77
2020/12/29 01:31:39;;;;;;;0.90;0.90;;;7.20;70.50;;;;;;4898007;29;20457;-77
2020/12/29 01:34:05;;;;;;;0.80;0.60;;;7.20;70.70;;;;;;4898207;29;20520;-77
2020/12/29 01:36:32;;;;;;;0.87;0.77;;;7.20;70.80;;;;;;4898033;29;20952;-77
2020/12/29 01:38:58;;;;;;;0.70;0.70;;;7.20;70.90;;;;;;4898334;29;20488;-77
2020/12/29 01:41:25;;;;;;;1.53;1.00;;;7.20;70.80;;;;;;4898220;29;20841;-77
2020/12/29 01:43:53;;;;;;;0.90;0.90;;;7.20;71.00;;;;;;4895153;29;20877;-77
2020/12/29 01:46:19;;;;;;;3.13;1.00;;;7.20;71.20;;;;;;4898156;29;20481;-77
2020/12/29 01:48:46;;;;;;;1.37;0.80;;;7.20;71.40;;;;;;4897821;29;20909;-77
2020/12/29 01:51:12;;;;;;;1.00;0.90;;;7.20;71.50;;;;;;4898044;29;20457;-77
2020/12/29 01:53:39;;;;;;;1.90;0.90;;;7.20;71.50;;;;;;4897745;29;20455;-77
2020/12/29 01:56:10;;;;;;;0.97;0.87;;;7.20;71.50;;;;;;4897663;29;20475;-77
2020/12/29 01:58:37;;;;;;;1.17;0.83;;;7.20;71.50;;;;;;4897527;29;20572;-77
2020/12/29 02:01:05;;;;;;;1.17;0.87;;;7.20;71.30;;;;;;4897824;29;20489;-77
2020/12/29 02:03:32;;;;;;;1.63;0.97;;;7.20;71.30;;;;;;4896086;29;20460;-77
2020/12/29 02:05:59;;;;;;;0.70;0.70;;;7.20;71.20;;;;;;4898134;29;20452;-77
2020/12/29 02:08:26;;;;;;;0.93;0.90;;;7.20;71.40;;;;;;4897503;29;20496;-77
2020/12/29 02:10:53;;;;;;;1.10;0.80;;;7.20;71.40;;;;;;4895972;29;20461;-77
2020/12/29 02:13:21;;;;;;;2.67;0.83;;;7.20;71.50;;;;;;4897285;29;20544;-77
2020/12/29 02:15:47;;;;;;;0.90;0.80;;;7.20;71.40;;;;;;4897475;29;20463;-77
2020/12/29 02:18:15;;;;;;;1.07;0.70;;;7.30;71.50;;;;;;4897457;29;20463;-76
2020/12/29 02:20:41;;;;;;;0.80;0.80;;;7.30;71.40;;;;;;4897575;29;20491;-77
2020/12/29 02:23:10;;;;;;;1.80;0.70;;;7.30;71.20;;;;;;4897236;29;20501;-77
2020/12/29 02:25:37;;;;;;;1.00;0.50;;;7.30;71.10;;;;;;4897524;29;20457;-77
2020/12/29 02:28:07;;;;;;;0.70;0.70;;;7.20;70.80;;;;;;4896923;29;20491;-76
2020/12/29 02:30:34;;;;;;;1.23;0.70;;;7.20;71.00;;;;;;4897602;29;20459;-77
2020/12/29 02:33:00;;;;;;;1.93;1.83;;;7.20;71.30;;;;;;4897035;29;20494;-76
2020/12/29 02:35:27;;;;;;;1.00;0.90;;;7.20;71.30;;;;;;4897262;29;20965;-77
2020/12/29 02:37:53;;;;;;;0.70;0.70;;;7.30;71.30;;;;;;4895811;29;20492;-77
2020/12/29 02:40:21;;;;;;;1.10;1.00;;;7.30;71.10;;;;;;4896435;29;20963;-77
2020/12/29 02:42:47;;;;;;;0.70;0.63;;;7.30;71.10;;;;;;4896342;29;20462;-77
2020/12/29 02:45:14;;;;;;;0.60;0.60;;;7.30;70.80;;;;;;4896839;29;21050;-76
2020/12/29 02:47:40;;;;;;;1.10;0.90;;;7.30;70.60;;;;;;4897445;29;20556;-75
2020/12/29 02:50:07;;;;;;;0.97;0.77;;;7.40;70.40;;;;;;4897196;29;20470;-75
2020/12/29 02:52:34;;;;;;;0.60;0.60;;;7.40;70.40;;;;;;4897043;29;20466;-74
2020/12/29 02:55:01;;;;;;;1.13;0.60;;;7.30;69.90;;;;;;4900072;29;20510;-77
2020/12/29 02:57:28;;;;;;;0.97;0.70;;;7.30;70.10;;;;;;4900953;29;20486;-75
2020/12/29 02:59:55;;;;;;;1.17;0.50;;;7.30;70.20;;;;;;4901125;29;21125;-76
2020/12/29 03:02:22;;;;;;;2.20;0.70;;;7.30;70.40;;;;;;4900800;29;20459;-76
2020/12/29 03:04:48;;;;;;;0.60;0.60;;;7.30;70.50;;;;;;4898507;29;20457;-77
2020/12/29 03:07:15;;;;;;;0.80;0.57;;;7.30;70.80;;;;;;4900680;29;20497;-77
2020/12/29 03:09:41;;;;;;;0.47;0.47;;;7.30;71.20;;;;;;4901063;29;20473;-76
2020/12/29 03:12:08;;;;;;;0.83;0.50;;;7.30;71.50;;;;;;4900469;29;20461;-74
2020/12/29 03:14:35;;;;;;;0.70;0.60;;;7.30;71.50;;;;;;4900156;29;20470;-75
2020/12/29 03:17:02;;;;;;;0.70;0.60;;;7.30;71.50;;;;;;4900587;29;21020;-75
2020/12/29 03:19:28;;;;;;;0.60;0.50;;;7.40;71.70;;;;;;4900475;29;20453;-76
2020/12/29 03:21:55;;;;;;;1.10;0.50;;;7.40;72.00;;;;;;4900753;29;20465;-76
2020/12/29 03:24:21;;;;;;;0.50;0.50;;;7.40;71.50;;;;;;4900463;29;20950;-76
2020/12/29 03:26:48;;;;;;;0.80;0.60;;;7.30;71.50;;;;;;4900178;29;20514;-76
2020/12/29 03:29:14;;;;;;;2.70;0.80;;;7.30;71.70;;;;;;4899931;29;20453;-76
2020/12/29 03:31:44;;;;;;;0.50;0.50;;;7.30;72.00;;;;;;4899519;29;20521;-76
2020/12/29 03:34:16;;;;;;;0.50;0.50;;;7.30;72.70;;;;;;4900195;29;20458;-76
2020/12/29 03:36:42;;;;;;;0.77;0.57;;;7.30;72.20;;;;;;4900336;29;20472;-76
2020/12/29 03:39:09;;;;;;;1.73;1.00;;;7.20;72.50;;;;;;4900162;29;20465;-76
2020/12/29 03:41:35;;;;;;;0.57;0.57;;;7.20;72.60;;;;;;4900354;29;20466;-76
2020/12/29 03:44:02;;;;;;;0.77;0.60;;;7.20;72.50;;;;;;4900393;29;20472;-76
2020/12/29 03:46:28;;;;;;;1.13;0.70;;;7.20;72.80;;;;;;4899889;29;21020;-77
2020/12/29 03:48:56;;;;;;;0.97;0.90;;;7.20;72.90;;;;;;4900120;29;20497;-77
2020/12/29 03:51:22;;;;;;;0.40;0.40;;;7.20;72.60;;;;;;4899960;29;20453;-77
2020/12/29 03:53:49;;;;;;;0.60;0.50;;;7.20;72.60;;;;;;4899962;29;20451;-78
2020/12/29 03:56:15;;;;;;;0.53;0.53;;;7.20;72.50;;;;;;4880404;29;21026;-76
2020/12/29 03:58:42;;;;;;;0.90;0.70;;;7.20;72.60;;;;;;4899915;29;20467;-77
2020/12/29 04:01:08;;;;;;;0.60;0.60;;;7.20;72.50;;;;;;4899198;29;20455;-77
2020/12/29 04:03:35;;;;;;;0.60;0.60;;;7.20;72.60;;;;;;4899992;29;20872;-77
2020/12/29 04:06:02;;;;;;;1.17;1.10;;;7.20;72.60;;;;;;4897856;29;20474;-77
2020/12/29 04:08:29;;;;;;;0.70;0.60;;;7.20;72.60;;;;;;4899479;29;20506;-77
2020/12/29 04:10:55;;;;;;;0.83;0.60;;;7.20;72.70;;;;;;4899731;29;20457;-77
2020/12/29 04:13:22;;;;;;;1.27;0.77;;;7.20;72.60;;;;;;4899467;29;20461;-77
2020/12/29 04:15:48;;;;;;;0.67;0.67;;;7.20;72.60;;;;;;4899728;29;20469;-76
2020/12/29 04:18:15;;;;;;;0.60;0.60;;;7.20;72.60;;;;;;4899223;29;20470;-76
2020/12/29 04:20:41;;;;;;;9.60;0.90;;;7.20;72.50;;;;;;4899981;29;20518;-76
2020/12/29 04:23:09;;;;;;;0.97;0.50;;;7.20;72.60;;;;;;4897587;29;20468;-76
2020/12/29 04:25:35;;;;;;;0.70;0.50;;;7.30;72.70;;;;;;4899710;29;20828;-77
2020/12/29 04:28:02;;;;;;;1.13;0.60;;;7.20;72.50;;;;;;4899274;29;20584;-77
2020/12/29 04:30:28;;;;;;;0.80;0.67;;;7.20;72.40;;;;;;4899635;29;20455;-76
2020/12/29 04:32:55;;;;;;;0.67;0.67;;;7.20;72.50;;;;;;4899151;29;20462;-77
2020/12/29 04:35:21;;;;;;;1.73;0.50;;;7.20;72.60;;;;;;4899751;29;20943;-76
2020/12/29 04:37:48;;;;;;;0.90;0.60;;;7.20;72.50;;;;;;4899249;29;20464;-76
2020/12/29 04:40:15;;;;;;;0.60;0.60;;;7.20;72.20;;;;;;4898946;29;20966;-77
2020/12/29 04:42:42;;;;;;;1.43;0.70;;;7.20;72.00;;;;;;4898734;29;20462;-76
2020/12/29 04:45:09;;;;;;;1.50;0.83;;;7.20;72.10;;;;;;4898706;29;20519;-76
2020/12/29 04:47:36;;;;;;;0.80;0.60;;;7.20;72.00;;;;;;4898878;29;20587;-76
2020/12/29 04:50:04;;;;;;;0.63;0.60;;;7.10;71.50;;;;;;4897435;29;20450;-75
2020/12/29 04:52:31;;;;;;;1.43;0.50;;;7.00;71.40;;;;;;4898857;29;20501;-76
2020/12/29 04:54:57;;;;;;;1.23;0.70;;;7.00;71.60;;;;;;4898371;29;21009;-76
2020/12/29 04:57:25;;;;;;;1.30;0.57;;;7.00;72.00;;;;;;4898823;29;20465;-76
2020/12/29 04:59:52;;;;;;;0.97;0.73;;;7.00;72.30;;;;;;4898728;29;20465;-77
2020/12/29 05:02:19;;;;;;;0.70;0.70;;;7.00;73.10;;;;;;4912878;29;20453;-77
2020/12/29 05:04:46;;;;;;;0.90;0.70;;;7.00;73.90;;;;;;4900249;29;20548;-76
2020/12/29 05:07:12;;;;;;;0.80;0.70;;;7.00;74.40;;;;;;4898386;29;20492;-76
2020/12/29 05:09:39;;;;;;;0.40;0.40;;;6.90;74.70;;;;;;4898450;29;20815;-77
2020/12/29 05:12:06;;;;;;;1.40;0.63;;;6.90;75.00;;;;;;4897781;29;20497;-77
2020/12/29 05:14:33;;;;;;;0.63;0.60;;;6.80;75.20;;;;;;4896835;29;20523;-77
2020/12/29 05:17:02;;;;;;;0.67;0.67;;;6.80;75.40;;;;;;4896142;29;20452;-76
2020/12/29 05:19:29;;;;;;;0.60;0.57;;;6.90;75.60;;;;;;4898091;29;20963;-77
2020/12/29 05:21:57;;;;;;;2.67;1.00;;;6.90;76.20;;;;;;4898210;29;20491;-77
2020/12/29 05:24:24;;;;;;;1.00;0.60;;;6.90;75.40;;;;;;4897631;29;20594;-77
2020/12/29 05:26:53;;;;;;;1.30;0.53;;;6.90;75.20;;;;;;4898226;29;20456;-78
2020/12/29 05:29:22;;;;;;;0.70;0.70;;;6.90;74.90;;;;;;4897742;29;20454;-77
2020/12/29 05:31:50;;;;;;;2.10;0.87;;;6.80;74.70;;;;;;4897902;29;20982;-77
2020/12/29 05:34:21;;;;;;;0.93;0.50;;;6.70;74.60;;;;;;4897707;29;20491;-76
2020/12/29 05:36:49;;;;;;;1.00;0.90;;;6.60;74.60;;;;;;4897933;29;21000;-77
2020/12/29 05:39:16;;;;;;;1.60;0.60;;;6.60;75.00;;;;;;4898168;29;20464;-77
2020/12/29 05:41:44;;;;;;;0.90;0.67;;;6.60;75.00;;;;;;4897933;29;21015;-77
2020/12/29 05:44:14;;;;;;;1.23;0.60;;;6.70;75.10;;;;;;4895835;29;20457;-77
2020/12/29 05:46:41;;;;;;;0.93;0.60;;;6.70;74.80;;;;;;4897236;29;20871;-77
2020/12/29 05:49:08;;;;;;;4.20;0.80;;;6.70;74.60;;;;;;4901393;29;20508;-77
2020/12/29 05:51:35;;;;;;;0.60;0.57;;;6.70;74.70;;;;;;4899669;29;20958;-76
2020/12/29 05:54:03;;;;;;;0.50;0.50;;;6.70;74.50;;;;;;4896803;29;20545;-76
2020/12/29 05:56:34;;;;;;;0.80;0.60;;;6.70;74.50;;;;;;4897040;29;20460;-76
2020/12/29 05:59:03;;;;;;;0.50;0.50;;;6.80;74.40;;;;;;4897357;29;20506;-76
2020/12/29 06:01:37;;;;;;;0.60;0.60;;;6.80;74.60;;;;;;4897485;29;20492;-77
2020/12/29 06:04:04;;;;;;;0.70;0.50;;;6.80;74.60;;;;;;4896774;29;20468;-76
2020/12/29 06:06:36;;;;;;;1.57;0.67;;;6.70;74.60;;;;;;4897308;29;20472;-77
2020/12/29 06:09:06;;;;;;;1.70;0.83;;;6.80;74.90;;;;;;4896337;29;20499;-77
2020/12/29 06:11:54;;;;;;;0.93;0.80;;;6.80;74.70;;;;;;4897177;29;20472;-77
2020/12/29 06:14:23;;;;;;;1.03;0.97;;;6.80;74.80;;;;;;4897033;29;20461;-77
2020/12/29 06:16:50;;;;;;;1.53;1.00;;;6.80;74.60;;;;;;4895524;29;20460;-77
2020/12/29 06:19:23;;;;;;;1.40;0.67;;;6.70;74.40;;;;;;4897678;29;20454;-77
2020/12/29 06:22:11;;;;;;;0.90;0.60;;;6.70;74.70;;;;;;4897160;29;20466;-77
2020/12/29 06:24:39;;;;;;;1.53;0.77;;;6.80;74.80;;;;;;4887500;29;20458;-77
2020/12/29 06:27:07;;;;;;;2.67;0.60;;;6.80;74.50;;;;;;4897208;29;20484;-77
2020/12/29 06:29:35;;;;;;;1.80;0.63;;;6.80;74.20;;;;;;4894586;29;20969;-77
2020/12/29 06:32:05;;;;;;;0.60;0.60;;;6.70;74.40;;;;;;4889511;29;20462;-77
2020/12/29 06:34:34;;;;;;;1.50;0.77;;;6.70;74.40;;;;;;4896572;29;20453;-77
2020/12/29 06:37:08;;;;;;;1.07;0.60;;;6.70;74.30;;;;;;4895774;29;20495;-77
2020/12/29 06:39:40;;;;;;;0.80;0.73;;;6.70;74.00;;;;;;4897062;29;20476;-77
2020/12/29 06:42:07;;;;;;;1.03;0.77;;;6.70;74.00;;;;;;4901122;29;20526;-77
2020/12/29 06:44:34;;;;;;;1.30;0.70;;;6.80;74.20;;;;;;4906316;29;20467;-77
2020/12/29 06:47:07;;;;;;;0.50;0.50;;;6.70;74.00;;;;;;4899742;29;20571;-77
2020/12/29 06:49:34;;;;;;;0.93;0.70;;;6.80;74.30;;;;;;4897311;29;20546;-77
2020/12/29 06:52:32;;;;;;;1.03;0.77;;;6.80;73.90;;;;;;4896852;29;20559;-77
2020/12/29 06:55:00;;;;;;;1.37;1.07;;;6.80;73.90;;;;;;4896818;29;20625;-77
2020/12/29 06:57:47;;;;;;;1.57;1.17;;;6.90;74.00;;;;;;4896732;29;20467;-77
2020/12/29 07:00:19;;;;;;;0.80;0.80;;;6.90;73.70;;;;;;4878757;29;20464;-77
2020/12/29 07:02:47;;;;;;;1.40;0.80;;;6.90;73.30;;;;;;4888897;29;21062;-77
2020/12/29 07:05:15;;;;;;;0.97;0.70;;;6.90;73.40;;;;;;4895827;29;20509;-77
2020/12/29 07:07:58;;;;;;;0.80;0.80;;;6.90;73.30;;;;;;4896065;29;20840;-76
2020/12/29 07:10:38;;;;;;;1.60;0.83;;;6.90;73.30;;;;;;4881152;29;20465;-75
2020/12/29 07:13:10;;;;;;;0.97;0.73;;;6.90;73.10;;;;;;4899176;29;20458;-75
2020/12/29 07:15:46;;;;;;;0.70;0.70;;;6.90;73.20;;;;;;4904028;29;20848;-76
2020/12/29 07:18:17;;;;;;;1.70;1.10;;;6.90;73.10;;;;;;4899676;29;20489;-76
2020/12/29 07:20:46;;;;;;;1.80;0.90;;;7.00;73.00;;;;;;4909652;29;20976;-75
2020/12/29 07:23:17;;;;;;;2.87;0.87;;;7.00;73.00;;;;;;4907901;29;20481;-77
2020/12/29 07:25:45;;;;;;;1.00;0.90;;;7.00;73.00;;;;;;4908068;29;20463;-77
2020/12/29 07:28:12;;;;;;;2.33;0.90;;;7.10;72.90;;;;;;4904244;29;20503;-76
2020/12/29 07:30:39;;;;;;;3.90;1.00;;;7.10;72.70;;;;;;4899276;29;20457;-76
2020/12/29 07:33:07;;;;;;;2.30;1.83;;;7.10;72.60;;;;;;4904185;29;20463;-78
2020/12/29 07:35:36;;;;;;;1.37;1.27;;;7.20;72.70;;;;;;4898418;29;20453;-76
2020/12/29 07:38:07;;;;;;;1.10;1.00;;;7.20;72.60;;;;;;4895507;29;20964;-77
2020/12/29 07:40:36;;;;;;;1.23;0.90;;;7.30;72.60;;;;;;4897015;29;21030;-77
2020/12/29 07:43:04;;;;;;;1.60;1.10;;;7.30;72.40;;;;;;4899306;29;20965;-76
2020/12/29 07:45:31;;;;;;;0.90;0.90;;;7.30;71.90;;;;;;4899849;29;20472;-76
2020/12/29 07:47:59;;;;;;;3.90;1.27;;;7.30;72.20;;;;;;4898970;29;20548;-76
2020/12/29 07:50:26;;;;;;;2.90;1.50;;;7.40;72.30;;;;;;4899842;29;20479;-76
2020/12/29 07:53:01;;;;;;;1.10;1.00;;;7.40;72.10;;;;;;4899821;29;20458;-76
2020/12/29 07:55:27;;;;;;;5.40;1.20;;;7.40;71.70;;;;;;4899946;29;20524;-76
2020/12/29 07:57:55;;;;;;;0.97;0.97;;;7.40;71.90;;;;;;4897871;29;20474;-76
2020/12/29 08:00:22;;;;;;;1.00;0.90;;;7.40;71.80;;;;;;4899567;29;20456;-76
2020/12/29 08:02:52;;;;;;;1.80;1.17;;;7.40;71.40;;;;;;4899752;29;20455;-76
2020/12/29 08:05:22;;;;;;;1.70;1.20;;;7.30;71.60;;;;;;4899788;29;20453;-76
2020/12/29 08:07:56;;;;;;;0.90;0.80;;;7.30;71.90;;;;;;4899607;29;20977;-76
2020/12/29 08:10:24;;;;;;;2.67;1.00;;;7.30;71.60;;;;;;4899407;29;20460;-75
2020/12/29 08:12:55;;;;;;;1.07;0.80;;;7.30;71.90;;;;;;4899042;29;20538;-76
2020/12/29 08:15:26;;;;;;;2.07;1.27;;;7.40;72.10;;;;;;4899264;29;20458;-76
2020/12/29 08:18:09;;;;;;;1.37;1.27;;;7.50;72.20;;;;;;4899298;29;20527;-76
2020/12/29 08:20:43;;;;;;;6.50;1.80;;;7.50;71.90;;;;;;4899053;29;20462;-76
2020/12/29 08:23:10;;;;;;;2.10;1.17;;;7.60;71.90;;;;;;4898055;29;20467;-76
2020/12/29 08:25:37;;;;;;;2.40;1.20;;;7.60;71.60;;;;;;4896991;29;20456;-76
2020/12/29 08:28:05;;;;;;;2.03;1.20;;;7.60;71.40;;;;;;4898483;29;20504;-75
2020/12/29 08:30:33;;;;;;;1.03;0.77;;;7.70;71.40;;;;;;4898520;29;20456;-75
2020/12/29 08:33:03;;;;;;;1.00;0.73;;;7.70;71.10;;;;;;4898183;29;20470;-75
2020/12/29 08:35:33;;;;;;;1.87;1.20;;;7.70;71.30;;;;;;4899292;29;20458;-75
2020/12/29 08:38:12;;;;;;;2.90;0.90;;;7.80;71.30;;;;;;4898666;29;20470;-76
2020/12/29 08:40:45;;;;;;;2.10;0.70;;;7.80;71.30;;;;;;4893389;29;20465;-76
2020/12/29 08:43:15;;;;;;;1.80;1.67;;;7.80;71.20;;;;;;4899249;29;20459;-76
2020/12/29 08:45:42;;;;;;;0.80;0.80;;;7.80;71.40;;;;;;4898179;29;20516;-76
2020/12/29 08:48:09;;;;;;;1.90;1.03;;;7.80;71.80;;;;;;4899253;29;20502;-76
2020/12/29 08:50:37;;;;;;;1.50;1.20;;;7.80;72.10;;;;;;4897884;29;20596;-75
2020/12/29 08:53:06;;;;;;;1.13;1.07;;;7.70;72.40;;;;;;4897259;29;20458;-76
2020/12/29 08:55:36;;;;;;;1.53;1.23;;;7.70;72.50;;;;;;4898470;29;20545;-75
2020/12/29 08:58:07;;;;;;;1.60;0.87;;;7.70;72.80;;;;;;4898579;29;20472;-77
2020/12/29 09:00:44;;;;;;;2.63;0.70;;;7.60;72.70;;;;;;4897854;29;20464;-77
2020/12/29 09:03:21;;;;;;;1.23;0.90;;;7.60;73.30;;;;;;4897079;29;20462;-76
2020/12/29 09:05:53;;;;;;;2.00;1.10;;;7.60;73.90;;;;;;4897876;29;21017;-76
2020/12/29 09:08:29;;;;;;;4.00;1.23;;;7.60;73.90;;;;;;4898517;29;20492;-76
2020/12/29 09:11:11;;;;;;;3.67;1.30;;;7.70;74.00;;;;;;4898190;29;20474;-77
2020/12/29 09:13:39;;;;;;;1.40;1.13;;;7.70;73.80;;;;;;4879767;29;20463;-76
2020/12/29 09:16:13;;;;;;;1.90;0.93;;;7.60;73.30;;;;;;4896921;29;20459;-73
2020/12/29 09:18:43;;;;;;;1.20;1.10;;;7.60;73.60;;;;;;4896851;29;20489;-76
2020/12/29 09:21:22;;;;;;;2.10;1.50;;;7.50;73.80;;;;;;4897961;29;20463;-75
2020/12/29 09:23:59;;;;;;;1.70;1.00;;;7.50;74.10;;;;;;4879936;29;20460;-75
2020/12/29 09:26:26;;;;;;;1.00;0.83;;;7.50;74.10;;;;;;4895876;29;20450;-75
2020/12/29 09:28:53;;;;;;;2.70;1.40;;;7.50;74.10;;;;;;4898049;29;20499;-74
2020/12/29 09:31:25;;;;;;;1.70;1.00;;;7.60;74.30;;;;;;4897934;29;20472;-74
2020/12/29 09:33:52;;;;;;;2.13;1.30;;;7.60;74.10;;;;;;4897023;29;20466;-75
2020/12/29 09:36:19;;;;;;;2.80;1.17;;;7.60;74.20;;;;;;4896212;29;20519;-75
2020/12/29 09:38:48;;;;;;;1.30;1.20;;;7.60;74.20;;;;;;4897291;29;20531;-75
2020/12/29 09:41:15;;;;;;;1.30;1.10;;;7.70;74.00;;;;;;4897130;29;20990;-75
2020/12/29 09:43:41;;;;;;;1.23;1.07;;;7.80;74.00;;;;;;4897451;29;20462;-75
2020/12/29 09:46:09;;;;;;;1.70;1.23;;;7.80;73.80;;;;;;4896261;29;20486;-75
2020/12/29 09:48:36;;;;;;;1.23;1.13;;;7.90;73.70;;;;;;4897240;29;20493;-75
2020/12/29 09:51:03;;;;;;;1.50;1.40;;;7.90;74.10;;;;;;4898595;29;20455;-75
2020/12/29 09:53:30;;;;;;;1.63;1.03;;;7.90;72.90;;;;;;4896740;29;20916;-75
2020/12/29 09:55:57;;;;;;;1.20;1.10;;;8.00;72.70;;;;;;4896758;29;20490;-75
2020/12/29 09:58:24;;;;;;;1.20;1.10;;;8.00;72.80;;;;;;4895884;29;20847;-75
2020/12/29 10:00:50;;;;;;;1.20;1.10;;;8.00;72.80;;;;;;4896813;29;20969;-74
2020/12/29 10:03:17;;;;;;;1.80;1.70;;;8.00;73.00;;;;;;4896437;29;20455;-74
2020/12/29 10:05:55;;;;;;;;;;;;;;;;;;;;;
2020/12/29 10:08:22;;;;;;;2.20;1.33;;;8.10;72.00;;;;;;4896901;29;21048;-75
2020/12/29 10:10:48;;;;;;;1.70;1.50;;;8.10;72.40;;;;;;4897076;29;20458;-74
2020/12/29 10:13:15;;;;;;;1.17;1.07;;;8.20;72.50;;;;;;4895744;29;20831;-74
2020/12/29 10:15:44;;;;;;;1.40;1.30;;;8.30;72.20;;;;;;4896562;29;20468;-74
2020/12/29 10:18:11;;;;;;;2.10;1.43;;;8.30;71.50;;;;;;4896755;29;20939;-74
2020/12/29 10:20:40;;;;;;;1.83;1.30;;;8.30;71.80;;;;;;4897005;29;20534;-74
2020/12/29 10:23:19;;;;;;;1.30;0.90;;;8.30;71.70;;;;;;4896702;29;20462;-74
2020/12/29 10:25:47;;;;;;;2.67;1.50;;;8.40;71.60;;;;;;4896194;29;20463;-76
2020/12/29 10:28:19;;;;;;;1.50;1.40;;;8.40;71.20;;;;;;4896409;29;20493;-76
2020/12/29 10:30:47;;;;;;;1.23;1.10;;;8.40;71.10;;;;;;4895607;29;20511;-75
2020/12/29 10:33:15;;;;;;;1.40;1.30;;;8.40;70.90;;;;;;4896418;29;20447;-76
2020/12/29 10:35:45;;;;;;;3.57;1.30;;;8.40;70.60;;;;;;4896250;29;20537;-76
2020/12/29 10:38:11;;;;;;;1.27;1.17;;;8.40;70.50;;;;;;4896514;29;20475;-76
2020/12/29 10:40:39;;;;;;;2.90;1.10;;;8.50;70.70;;;;;;4894828;29;20466;-76
2020/12/29 10:43:05;;;;;;;1.80;1.10;;;8.50;69.90;;;;;;4897200;29;20468;-75
2020/12/29 10:45:31;;;;;;;1.30;1.20;;;8.50;70.00;;;;;;4896570;29;20486;-75
2020/12/29 10:47:58;;;;;;;5.33;1.30;;;8.60;70.20;;;;;;4897013;29;21011;-76
2020/12/29 10:50:25;;;;;;;2.97;1.43;;;8.70;70.60;;;;;;4897074;29;20463;-76
2020/12/29 10:52:51;;;;;;;1.17;1.07;;;8.80;70.10;;;;;;4897338;29;20812;-77
2020/12/29 10:55:18;;;;;;;1.10;1.00;;;8.80;69.70;;;;;;4896962;29;20512;-77
2020/12/29 10:57:45;;;;;;;0.80;0.80;;;8.90;69.90;;;;;;4897017;29;20473;-77
2020/12/29 11:00:11;;;;;;;1.33;0.93;;;9.00;69.60;;;;;;4896893;29;20533;-78
2020/12/29 11:02:39;;;;;;;0.80;0.70;;;9.10;69.30;;;;;;4897456;29;20463;-76
2020/12/29 11:05:06;;;;;;;1.53;0.93;;;9.10;67.70;;;;;;4897056;29;20484;-76
2020/12/29 11:07:32;;;;;;;1.33;1.10;;;9.10;67.90;;;;;;4895009;29;20469;-77
2020/12/29 11:10:03;;;;;;;0.90;0.90;;;9.10;67.40;;;;;;4895476;29;20479;-76
2020/12/29 11:12:29;;;;;;;1.00;1.00;;;9.10;67.50;;;;;;4895986;29;20495;-75
2020/12/29 11:14:57;;;;;;;0.67;0.67;;;9.00;67.30;;;;;;4896780;29;20519;-76
2020/12/29 11:17:24;;;;;;;0.67;0.67;;;9.00;66.90;;;;;;4900719;29;21030;-77
2020/12/29 11:19:50;;;;;;;0.53;0.53;;;9.20;68.20;;;;;;4900352;29;20964;-75
2020/12/29 11:22:17;;;;;;;0.63;0.63;;;9.90;67.70;;;;;;4900481;29;20451;-77
2020/12/29 11:24:43;;;;;;;1.03;0.60;;;10.40;64.30;;;;;;4899819;29;20467;-77
2020/12/29 11:27:10;;;;;;;0.70;0.70;;;10.70;62.70;;;;;;4900447;29;20543;-76
2020/12/29 11:29:37;;;;;;;1.60;0.97;;;10.90;61.60;;;;;;4899961;29;20497;-77
2020/12/29 11:32:04;;;;;;;0.80;0.80;;;11.70;62.10;;;;;;4900078;29;20597;-77
2020/12/29 11:34:31;;;;;;;1.10;1.00;;;14.00;59.30;;;;;;4898486;29;20479;-77
2020/12/29 11:36:57;;;;;;;0.90;0.80;;;15.90;55.30;;;;;;4899162;29;20494;-77
2020/12/29 11:39:24;;;;;;;0.90;0.90;;;17.90;51.30;;;;;;4900525;29;20872;-79
2020/12/29 11:41:51;;;;;;;0.93;0.93;;;19.60;46.70;;;;;;4899728;29;20957;-78
2020/12/29 11:44:17;;;;;;;1.20;0.90;;;20.30;43.50;;;;;;4900182;29;20548;-75
2020/12/29 11:46:44;;;;;;;1.33;1.23;;;19.20;42.70;;;;;;4899708;29;20904;-76
2020/12/29 11:49:11;;;;;;;1.87;1.17;;;17.40;43.30;;;;;;4899412;29;20479;-76
2020/12/29 11:51:38;;;;;;;1.23;1.07;;;15.80;45.00;;;;;;4900037;29;20519;-77
2020/12/29 11:54:05;;;;;;;2.00;0.80;;;14.30;46.40;;;;;;4899317;29;20959;-77
2020/12/29 11:56:31;;;;;;;0.83;0.80;;;13.20;48.50;;;;;;4899906;29;20920;-78
2020/12/29 11:58:58;;;;;;;0.80;0.80;;;12.20;50.40;;;;;;4898957;29;20459;-77
2020/12/29 12:01:24;;;;;;;0.73;0.70;;;11.60;52.90;;;;;;4898225;29;20484;-78
2020/12/29 12:03:50;;;;;;;0.70;0.70;;;11.20;53.60;;;;;;4886785;29;20467;-77
2020/12/29 12:06:18;;;;;;;0.60;0.60;;;10.90;54.40;;;;;;4899514;29;21032;-77
2020/12/29 12:08:44;;;;;;;2.87;0.77;;;10.70;54.90;;;;;;4899252;29;20548;-76
2020/12/29 12:11:11;;;;;;;0.80;0.63;;;10.60;55.30;;;;;;4899110;29;20467;-77
2020/12/29 12:13:37;;;;;;;1.07;0.70;;;10.50;55.60;;;;;;4899135;29;20459;-77
2020/12/29 12:16:04;;;;;;;0.93;0.90;;;10.30;56.10;;;;;;4899107;29;20530;-77
2020/12/29 12:18:31;;;;;;;0.90;0.90;;;10.30;56.60;;;;;;4909875;29;20858;-78
2020/12/29 12:21:00;;;;;;;1.43;0.97;;;10.20;56.70;;;;;;4899219;29;20963;-78
2020/12/29 12:23:28;;;;;;;1.93;0.80;;;10.10;56.60;;;;;;4898568;29;20565;-78
2020/12/29 12:25:54;;;;;;;1.10;0.93;;;10.00;57.00;;;;;;4898969;29;20461;-78
2020/12/29 12:28:22;;;;;;;0.77;0.77;;;9.90;58.10;;;;;;4897628;29;20505;-77
2020/12/29 12:30:48;;;;;;;1.13;1.10;;;9.80;58.40;;;;;;4905502;29;20561;-78
2020/12/29 12:33:15;;;;;;;1.10;1.00;;;9.80;58.80;;;;;;4899046;29;20941;-77
2020/12/29 12:35:42;;;;;;;1.10;1.00;;;9.70;59.10;;;;;;4899179;29;20866;-77
2020/12/29 12:38:09;;;;;;;1.10;0.90;;;9.70;59.60;;;;;;4897620;29;20957;-76
2020/12/29 12:40:36;;;;;;;1.73;0.87;;;9.60;59.50;;;;;;4898909;29;20593;-76
2020/12/29 12:43:03;;;;;;;2.10;0.93;;;9.60;59.80;;;;;;4898760;29;20468;-76
2020/12/29 12:45:29;;;;;;;1.07;0.93;;;9.50;60.70;;;;;;4898786;29;20481;-76
2020/12/29 12:47:56;;;;;;;1.33;1.00;;;9.50;60.40;;;;;;4898278;29;20470;-76
2020/12/29 12:50:22;;;;;;;0.80;0.80;;;9.40;60.70;;;;;;4894945;29;20548;-76
2020/12/29 12:52:50;;;;;;;1.90;1.00;;;9.50;61.20;;;;;;4898628;29;20464;-77
2020/12/29 12:55:17;;;;;;;1.47;1.00;;;9.50;61.30;;;;;;4897586;29;20824;-77
2020/12/29 12:57:44;;;;;;;1.00;0.77;;;9.50;61.50;;;;;;4898436;29;20804;-77
2020/12/29 13:00:11;;;;;;;0.90;0.90;;;9.60;61.80;;;;;;4898388;29;20963;-77
2020/12/29 13:02:37;;;;;;;1.60;1.10;;;9.60;61.70;;;;;;4898116;29;20464;-77